sensor_id;sensor_type;location;lat;lon;timestamp;pressure;altitude;pressure_sealevel;temperature;humidity
23172;BME280;11754;42.664;23.594;2023-07-08T18:13:34;95649.50;;;21.76;73.84
23172;BME280;11754;42.664;23.594;2023-07-08T18:16:04;95674.13;;;21.85;73.97
23172;BME280;11754;42.664;23.594;2023-07-08T18:18:34;95670.63;;;21.84;73.87
23172;BME280;11754;42.664;23.594;2023-07-08T18:21:00;95677.75;;;21.91;74.21
23172;BME280;11754;42.664;23.594;2023-07-08T18:23:33;95685.47;;;21.99;74.23
23172;BME280;11754;42.664;23.594;2023-07-08T18:26:00;95686.28;;;21.99;74.59
23172;BME280;11754;42.664;23.594;2023-07-08T18:28:25;95676.84;;;21.97;74.00
23172;BME280;11754;42.664;23.594;2023-07-08T18:30:51;95672.75;;;22.06;74.15
23172;BME280;11754;42.664;23.594;2023-07-08T18:33:18;95679.63;;;22.14;73.71
23172;BME280;11754;42.664;23.594;2023-07-08T18:35:44;95686.88;;;22.13;73.41
23172;BME280;11754;42.664;23.594;2023-07-08T18:38:10;95681.97;;;22.10;73.65
23172;BME280;11754;42.664;23.594;2023-07-08T18:40:41;95696.47;;;22.21;74.48
23172;BME280;11754;42.664;23.594;2023-07-08T18:43:19;95699.75;;;22.35;73.06
23172;BME280;11754;42.664;23.594;2023-07-08T18:45:46;95697.44;;;22.26;72.68
23172;BME280;11754;42.664;23.594;2023-07-08T18:48:13;95696.38;;;22.16;72.90
23172;BME280;11754;42.664;23.594;2023-07-08T18:50:40;95692.97;;;21.97;73.16
23172;BME280;11754;42.664;23.594;2023-07-08T18:53:11;95710.94;;;22.08;73.51
23172;BME280;11754;42.664;23.594;2023-07-08T18:55:38;95713.38;;;22.10;73.42
23172;BME280;11754;42.664;23.594;2023-07-08T18:58:03;95719.94;;;22.14;73.31
23172;BME280;11754;42.664;23.594;2023-07-08T19:00:29;95713.75;;;22.13;73.62
23172;BME280;11754;42.664;23.594;2023-07-08T19:02:56;95716.31;;;22.08;73.31
23172;BME280;11754;42.664;23.594;2023-07-08T19:05:23;95711.41;;;22.05;73.43
23172;BME280;11754;42.664;23.594;2023-07-08T19:07:53;95711.88;;;22.02;73.85
23172;BME280;11754;42.664;23.594;2023-07-08T19:10:26;95715.63;;;22.01;74.33
23172;BME280;11754;42.664;23.594;2023-07-08T19:12:54;95713.97;;;22.00;74.41
23172;BME280;11754;42.664;23.594;2023-07-08T19:15:25;95703.56;;;21.80;72.98
23172;BME280;11754;42.664;23.594;2023-07-08T19:17:53;95719.75;;;21.73;71.95
23172;BME280;11754;42.664;23.594;2023-07-08T19:20:20;95722.41;;;21.62;71.96
23172;BME280;11754;42.664;23.594;2023-07-08T19:22:49;95715.97;;;21.51;71.62
23172;BME280;11754;42.664;23.594;2023-07-08T19:25:20;95711.78;;;21.25;71.43
23172;BME280;11754;42.664;23.594;2023-07-08T19:27:46;95730.31;;;21.26;71.55
23172;BME280;11754;42.664;23.594;2023-07-08T19:30:13;95735.09;;;21.24;70.83
23172;BME280;11754;42.664;23.594;2023-07-08T19:32:42;95734.84;;;21.26;70.48
23172;BME280;11754;42.664;23.594;2023-07-08T19:35:13;95740.94;;;21.33;70.21
23172;BME280;11754;42.664;23.594;2023-07-08T19:37:39;95737.31;;;21.27;68.84
23172;BME280;11754;42.664;23.594;2023-07-08T19:40:08;95747.00;;;21.47;68.33
23172;BME280;11754;42.664;23.594;2023-07-08T19:42:34;95741.19;;;21.50;68.32
23172;BME280;11754;42.664;23.594;2023-07-08T19:44:59;95752.16;;;21.60;68.57
23172;BME280;11754;42.664;23.594;2023-07-08T19:47:25;95748.00;;;21.64;69.26
23172;BME280;11754;42.664;23.594;2023-07-08T19:49:50;95751.84;;;21.68;69.34
23172;BME280;11754;42.664;23.594;2023-07-08T19:52:15;95744.97;;;21.72;68.99
23172;BME280;11754;42.664;23.594;2023-07-08T19:54:41;95760.03;;;21.73;68.63
23172;BME280;11754;42.664;23.594;2023-07-08T19:57:10;95757.94;;;21.75;67.88
23172;BME280;11754;42.664;23.594;2023-07-08T19:59:35;95747.38;;;21.62;67.20
23172;BME280;11754;42.664;23.594;2023-07-08T20:02:01;95773.59;;;21.78;66.81
23172;BME280;11754;42.664;23.594;2023-07-08T20:04:27;95767.53;;;21.83;66.50
23172;BME280;11754;42.664;23.594;2023-07-08T20:06:53;95775.94;;;21.87;65.99
23172;BME280;11754;42.664;23.594;2023-07-08T20:09:20;95767.44;;;21.90;65.84
23172;BME280;11754;42.664;23.594;2023-07-08T20:12:03;95764.50;;;21.79;63.68
23172;BME280;11754;42.664;23.594;2023-07-08T20:14:28;95771.56;;;21.74;62.86
23172;BME280;11754;42.664;23.594;2023-07-08T20:16:54;95755.41;;;21.50;63.17
23172;BME280;11754;42.664;23.594;2023-07-08T20:19:28;95772.91;;;21.53;63.45
23172;BME280;11754;42.664;23.594;2023-07-08T20:21:54;95773.53;;;21.37;64.04
23172;BME280;11754;42.664;23.594;2023-07-08T20:24:19;95779.34;;;21.33;63.79
23172;BME280;11754;42.664;23.594;2023-07-08T20:26:45;95775.22;;;21.31;63.58
23172;BME280;11754;42.664;23.594;2023-07-08T20:29:17;95775.78;;;21.21;63.54
23172;BME280;11754;42.664;23.594;2023-07-08T20:31:46;95771.75;;;21.12;63.46
23172;BME280;11754;42.664;23.594;2023-07-08T20:34:11;95767.28;;;21.06;63.12
23172;BME280;11754;42.664;23.594;2023-07-08T20:36:39;95778.25;;;21.04;63.01
23172;BME280;11754;42.664;23.594;2023-07-08T20:39:05;95776.38;;;21.05;63.17
23172;BME280;11754;42.664;23.594;2023-07-08T20:41:31;95774.13;;;21.02;63.25
23172;BME280;11754;42.664;23.594;2023-07-08T20:43:58;95778.47;;;21.03;63.83
23172;BME280;11754;42.664;23.594;2023-07-08T20:46:29;95772.75;;;20.99;64.05
23172;BME280;11754;42.664;23.594;2023-07-08T20:48:57;95778.94;;;21.00;63.82
23172;BME280;11754;42.664;23.594;2023-07-08T20:51:23;95786.34;;;20.98;63.38
23172;BME280;11754;42.664;23.594;2023-07-08T20:53:53;95786.06;;;20.87;63.68
23172;BME280;11754;42.664;23.594;2023-07-08T20:56:24;95785.59;;;20.72;64.61
23172;BME280;11754;42.664;23.594;2023-07-08T20:58:51;95785.16;;;20.57;64.96
23172;BME280;11754;42.664;23.594;2023-07-08T21:01:16;95777.06;;;20.38;65.18
23172;BME280;11754;42.664;23.594;2023-07-08T21:03:42;95787.50;;;20.22;66.11
23172;BME280;11754;42.664;23.594;2023-07-08T21:06:23;95784.84;;;20.15;66.33
23172;BME280;11754;42.664;23.594;2023-07-08T21:08:49;95770.81;;;19.95;66.87
23172;BME280;11754;42.664;23.594;2023-07-08T21:11:18;95784.25;;;19.88;66.91
23172;BME280;11754;42.664;23.594;2023-07-08T21:13:44;95781.88;;;19.73;67.57
23172;BME280;11754;42.664;23.594;2023-07-08T21:16:13;95780.06;;;19.67;67.80
23172;BME280;11754;42.664;23.594;2023-07-08T21:18:39;95783.00;;;19.52;68.27
23172;BME280;11754;42.664;23.594;2023-07-08T21:21:04;95789.19;;;19.46;68.89
23172;BME280;11754;42.664;23.594;2023-07-08T21:23:30;95784.28;;;19.43;68.89
23172;BME280;11754;42.664;23.594;2023-07-08T21:25:56;95773.03;;;19.34;69.26
23172;BME280;11754;42.664;23.594;2023-07-08T21:28:32;95784.66;;;19.47;69.30
23172;BME280;11754;42.664;23.594;2023-07-08T21:31:02;95792.09;;;19.44;69.49
23172;BME280;11754;42.664;23.594;2023-07-08T21:33:31;95789.84;;;19.41;69.58
23172;BME280;11754;42.664;23.594;2023-07-08T21:35:57;95782.47;;;19.37;69.99
23172;BME280;11754;42.664;23.594;2023-07-08T21:38:24;95792.56;;;19.35;70.18
23172;BME280;11754;42.664;23.594;2023-07-08T21:40:51;95787.03;;;19.30;70.69
23172;BME280;11754;42.664;23.594;2023-07-08T21:43:37;95791.16;;;19.26;70.77
23172;BME280;11754;42.664;23.594;2023-07-08T21:46:02;95780.69;;;19.24;70.87
23172;BME280;11754;42.664;23.594;2023-07-08T21:48:28;95788.06;;;19.29;70.98
23172;BME280;11754;42.664;23.594;2023-07-08T21:50:57;95779.44;;;19.27;71.27
23172;BME280;11754;42.664;23.594;2023-07-08T21:53:31;95787.84;;;19.30;70.08
23172;BME280;11754;42.664;23.594;2023-07-08T21:55:58;95781.47;;;19.31;70.43
23172;BME280;11754;42.664;23.594;2023-07-08T21:58:24;95771.44;;;19.20;70.38
23172;BME280;11754;42.664;23.594;2023-07-08T22:00:53;95781.47;;;19.31;69.99
23172;BME280;11754;42.664;23.594;2023-07-08T22:03:22;95783.91;;;19.33;69.54
23172;BME280;11754;42.664;23.594;2023-07-08T22:05:49;95793.78;;;19.32;69.47
23172;BME280;11754;42.664;23.594;2023-07-08T22:08:15;95790.09;;;19.33;68.73
23172;BME280;11754;42.664;23.594;2023-07-08T22:10:51;95788.88;;;19.29;68.80
23172;BME280;11754;42.664;23.594;2023-07-08T22:13:28;95794.28;;;19.16;68.72
23172;BME280;11754;42.664;23.594;2023-07-08T22:15:58;95775.44;;;18.98;68.93
23172;BME280;11754;42.664;23.594;2023-07-08T22:18:25;95790.69;;;18.90;69.14
23172;BME280;11754;42.664;23.594;2023-07-08T22:20:55;95793.56;;;18.82;69.95
23172;BME280;11754;42.664;23.594;2023-07-08T22:23:31;95779.59;;;18.67;70.69
23172;BME280;11754;42.664;23.594;2023-07-08T22:25:57;95782.09;;;18.62;70.72
23172;BME280;11754;42.664;23.594;2023-07-08T22:28:23;95773.69;;;18.52;71.12
23172;BME280;11754;42.664;23.594;2023-07-08T22:30:49;95784.56;;;18.57;71.51
23172;BME280;11754;42.664;23.594;2023-07-08T22:33:17;95783.34;;;18.53;71.38
23172;BME280;11754;42.664;23.594;2023-07-08T22:35:43;95780.47;;;18.47;71.18
23172;BME280;11754;42.664;23.594;2023-07-08T22:38:13;95779.25;;;18.43;71.62
23172;BME280;11754;42.664;23.594;2023-07-08T22:40:40;95784.59;;;18.37;72.37
23172;BME280;11754;42.664;23.594;2023-07-08T22:43:15;95776.19;;;18.33;72.36
23172;BME280;11754;42.664;23.594;2023-07-08T22:45:41;95785.63;;;18.29;72.05
23172;BME280;11754;42.664;23.594;2023-07-08T22:48:09;95788.50;;;18.21;72.23
23172;BME280;11754;42.664;23.594;2023-07-08T22:50:36;95786.25;;;18.18;72.54
23172;BME280;11754;42.664;23.594;2023-07-08T22:53:02;95791.38;;;18.13;72.11
23172;BME280;11754;42.664;23.594;2023-07-08T22:55:30;95786.25;;;18.11;72.49
23172;BME280;11754;42.664;23.594;2023-07-08T22:58:20;95795.28;;;18.10;72.59
23172;BME280;11754;42.664;23.594;2023-07-08T23:00:46;95796.13;;;18.11;72.33
23172;BME280;11754;42.664;23.594;2023-07-08T23:03:11;95796.94;;;18.11;72.08
23172;BME280;11754;42.664;23.594;2023-07-08T23:05:37;95781.72;;;17.98;72.17
23172;BME280;11754;42.664;23.594;2023-07-08T23:08:03;95783.78;;;18.03;72.25
23172;BME280;11754;42.664;23.594;2023-07-08T23:10:30;95790.34;;;18.14;72.21
23172;BME280;11754;42.664;23.594;2023-07-08T23:12:58;95796.09;;;18.17;72.64
23172;BME280;11754;42.664;23.594;2023-07-08T23:15:23;95800.22;;;18.20;72.90
23172;BME280;11754;42.664;23.594;2023-07-08T23:17:49;95792.81;;;18.22;73.00
23172;BME280;11754;42.664;23.594;2023-07-08T23:20:19;95781.31;;;18.15;73.19
23172;BME280;11754;42.664;23.594;2023-07-08T23:22:45;95794.06;;;18.26;73.68
23172;BME280;11754;42.664;23.594;2023-07-08T23:25:12;95789.31;;;18.28;73.63
23172;BME280;11754;42.664;23.594;2023-07-08T23:27:38;95798.56;;;18.32;73.48
23172;BME280;11754;42.664;23.594;2023-07-08T23:30:14;95790.34;;;18.27;73.79
23172;BME280;11754;42.664;23.594;2023-07-08T23:32:40;95798.16;;;18.29;73.83
23172;BME280;11754;42.664;23.594;2023-07-08T23:35:06;95789.13;;;18.23;73.74
23172;BME280;11754;42.664;23.594;2023-07-08T23:37:31;95802.25;;;18.24;73.38
23172;BME280;11754;42.664;23.594;2023-07-08T23:39:57;95791.78;;;18.23;73.53
23172;BME280;11754;42.664;23.594;2023-07-08T23:42:23;95783.38;;;18.13;73.43
23172;BME280;11754;42.664;23.594;2023-07-08T23:44:49;95767.34;;;18.13;73.65
23172;BME280;11754;42.664;23.594;2023-07-08T23:47:38;95774.31;;;18.14;73.81
23172;BME280;11754;42.664;23.594;2023-07-08T23:50:16;95785.00;;;18.20;73.79
23172;BME280;11754;42.664;23.594;2023-07-08T23:52:42;95784.59;;;18.17;74.19
23172;BME280;11754;42.664;23.594;2023-07-08T23:55:08;95792.19;;;18.20;74.19
23172;BME280;11754;42.664;23.594;2023-07-08T23:57:33;95770.44;;;18.10;73.68
23172;BME280;11754;42.664;23.594;2023-07-08T23:59:58;95785.41;;;18.17;73.66
